CheckWX is a tool to help pilots better visualize weather data.  It is not intended as a substitute for an official pre-flight weather briefing.

09:47:57 UTC

KFSD TAF
Joe Foss Field Airport
Sioux Falls, South Dakota, USA
KFSD 220520Z 2206/2306 19015G18KT P6SM OVC120 WS014/22045KT FM220700 19015G23KT P6SM OVC070 FM221000 19012G18KT P6SM OVC025 FM221300 19009KT P6SM OVC008 FM222100 22005KT P6SM OVC007

Jan-22@
06:00 UTC

Jan-22 @ 06:00 UTC

Jan-22@
07:00 UTC

Jan-22 @ 07:00 UTC

KFSD 220520Z 2206/2306 19015G18KT P6SM OVC120 WS014/22045KT

Expired

Wind
  • 190° at 15 KTS
  • {Gusting to 18 KTS
Cloud Levels
  • Overcast at 12,000' AGL

Jan-22@
07:00 UTC

Jan-22 @ 07:00 UTC

Jan-22@
10:00 UTC

Jan-22 @ 10:00 UTC

FM220700 19015G23KT P6SM OVC070

From

From Standard forecast or significant change

Wind
  • 190° at 15 KTS
  • {Gusting to 23 KTS
Cloud Levels
  • Overcast at 7,000' AGL

Jan-22@
10:00 UTC

Jan-22 @ 10:00 UTC

Jan-22@
13:00 UTC

Jan-22 @ 13:00 UTC

FM221000 19012G18KT P6SM OVC025

From

From Standard forecast or significant change

Wind
  • 190° at 12 KTS
  • {Gusting to 18 KTS
Cloud Levels
  • Overcast at 2,500' AGL

Jan-22@
13:00 UTC

Jan-22 @ 13:00 UTC

Jan-22@
21:00 UTC

Jan-22 @ 21:00 UTC

FM221300 19009KT P6SM OVC008

From

From Standard forecast or significant change

Wind
  • 190° at 9 KTS
Cloud Levels
  • Overcast at 800' AGL

Jan-22@
21:00 UTC

Jan-22 @ 21:00 UTC

Jan-23@
06:00 UTC

Jan-23 @ 06:00 UTC

FM222100 22005KT P6SM OVC007

From

From Standard forecast or significant change

Wind
  • 220° at 5 KTS
Cloud Levels
  • Overcast at 700' AGL